Time;durP1;ratioP1;P1;durP2;ratioP2;P2;SDS_P1;SDS_P2;PMS_P1;PMS_P2;Temp;Humidity;BMP_temperature;BMP_pressure;BME280_temperature;BME280_humidity;BME280_pressure;Samples;Min_cycle;Max_cycle;Signal;HPM_P1;HPM_P2
2022/01/21 00:01:47;;;;;;;28.00;3.63;;;2.70;99.90;;;;;;5073388;28;20062;-71
2022/01/21 00:04:12;;;;;;;19.90;3.03;;;2.70;99.90;;;;;;5073158;28;20044;-71
2022/01/21 00:06:39;;;;;;;14.73;3.53;;;2.70;99.90;;;;;;5071644;28;20044;-71
2022/01/21 00:09:06;;;;;;;16.67;2.65;;;2.70;99.90;;;;;;5071786;28;20048;-71
2022/01/21 00:11:31;;;;;;;19.30;3.85;;;2.70;99.90;;;;;;5071955;28;20047;-71
2022/01/21 00:14:00;;;;;;;12.57;2.60;;;2.80;99.90;;;;;;5071830;28;20032;-71
2022/01/21 00:16:28;;;;;;;11.20;2.42;;;2.80;99.90;;;;;;5071527;28;20173;-71
2022/01/21 00:19:00;;;;;;;12.40;2.33;;;2.80;99.90;;;;;;5072987;28;20488;-71
2022/01/21 00:32:23;;;;;;;;;;;3.10;99.90;;;;;;5076555;28;20044;-71
2022/01/21 00:34:49;;;;;;;11.63;2.35;;;3.10;99.90;;;;;;5076991;28;19923;-71
2022/01/21 00:37:15;;;;;;;12.23;2.90;;;3.10;99.90;;;;;;5076746;28;20040;-71
2022/01/21 00:39:41;;;;;;;18.13;2.78;;;3.10;99.90;;;;;;5076948;28;20401;-71
2022/01/21 00:44:36;;;;;;;8.70;1.52;;;3.20;99.90;;;;;;5075450;28;20186;-71
2022/01/21 00:47:02;;;;;;;10.70;1.42;;;3.10;99.90;;;;;;5076313;28;20127;-71
2022/01/21 00:49:28;;;;;;;7.85;2.88;;;3.20;99.90;;;;;;5075260;28;20036;-71
2022/01/21 00:51:53;;;;;;;6.53;1.38;;;3.00;99.90;;;;;;5076826;28;20365;-71
2022/01/21 00:54:19;;;;;;;5.70;1.42;;;3.00;99.90;;;;;;5076698;28;20068;-71
2022/01/21 00:56:45;;;;;;;4.82;1.15;;;2.90;99.90;;;;;;5076186;28;20040;-71
2022/01/21 00:59:10;;;;;;;9.82;1.50;;;2.80;99.90;;;;;;5076778;28;20036;-71
2022/01/21 01:01:36;;;;;;;9.40;1.70;;;2.80;99.90;;;;;;5076234;28;20404;-71
2022/01/21 01:04:03;;;;;;;9.07;1.30;;;2.80;99.90;;;;;;5076310;28;20538;-71
2022/01/21 01:06:29;;;;;;;8.27;1.30;;;2.80;99.90;;;;;;5076105;28;20041;-71
2022/01/21 01:08:54;;;;;;;13.25;1.60;;;2.70;99.90;;;;;;5076443;28;20036;-71
2022/01/21 01:22:13;;;;;;;5.10;1.10;;;2.70;99.90;;;;;;5074606;28;20044;-71
2022/01/21 01:29:56;;;;;;;8.05;1.63;;;2.70;99.90;;;;;;5074479;28;20119;-71
2022/01/21 01:32:23;;;;;;;7.75;1.88;;;2.70;99.90;;;;;;5075084;28;20115;-71
2022/01/21 01:34:49;;;;;;;15.77;2.65;;;2.70;99.90;;;;;;5075960;28;20033;-71
2022/01/21 01:37:29;;;;;;;10.18;2.70;;;2.70;99.90;;;;;;5073292;28;20048;-71
2022/01/21 01:40:11;;;;;;;9.55;1.92;;;2.70;99.90;;;;;;5075811;28;20044;-71
2022/01/21 01:42:59;;;;;;;12.30;2.08;;;2.70;99.90;;;;;;5074784;28;20056;-71
2022/01/21 01:50:47;;;;;;;16.90;2.20;;;2.70;99.90;;;;;;5074272;28;20044;-71
2022/01/21 01:53:13;;;;;;;13.10;1.92;;;2.60;99.90;;;;;;5074109;28;20036;-71
2022/01/21 01:55:39;;;;;;;12.10;2.25;;;2.60;99.90;;;;;;5075029;28;20527;-71
2022/01/21 01:58:05;;;;;;;8.60;2.00;;;2.60;99.90;;;;;;5073842;28;20480;-71
2022/01/21 02:00:31;;;;;;;5.88;1.70;;;2.60;99.90;;;;;;5075722;28;20098;-71
2022/01/21 02:03:05;;;;;;;12.80;2.42;;;2.60;99.90;;;;;;5075447;28;20036;-71
2022/01/21 02:05:31;;;;;;;11.05;2.55;;;2.60;99.90;;;;;;5074825;28;20044;-72
2022/01/21 02:07:56;;;;;;;14.05;2.65;;;2.60;99.90;;;;;;5074173;28;20518;-71
2022/01/21 02:10:22;;;;;;;14.75;2.45;;;2.60;99.90;;;;;;5074183;28;20045;-71
2022/01/21 02:12:48;;;;;;;16.63;2.40;;;2.60;99.90;;;;;;5073723;28;20525;-71
2022/01/21 02:15:14;;;;;;;12.02;2.00;;;2.50;99.90;;;;;;5073690;28;20549;-71
2022/01/21 02:22:50;;;;;;;13.65;1.55;;;2.50;99.90;;;;;;5073464;28;20052;-71
2022/01/21 02:25:19;;;;;;;9.25;2.63;;;2.40;99.90;;;;;;5074967;28;20040;-71
2022/01/21 02:27:51;;;;;;;9.07;1.45;;;2.50;99.90;;;;;;5072940;28;20493;-71
2022/01/21 02:30:18;;;;;;;9.70;1.80;;;2.40;99.90;;;;;;5073370;28;20038;-71
2022/01/21 02:32:52;;;;;;;8.63;1.45;;;2.40;99.90;;;;;;5075195;28;20047;-71
2022/01/21 02:35:19;;;;;;;6.45;2.22;;;2.50;99.90;;;;;;5074938;28;20515;-71
2022/01/21 02:37:45;;;;;;;6.90;1.08;;;2.40;99.90;;;;;;5074131;28;20048;-71
2022/01/21 02:40:12;;;;;;;8.45;1.70;;;2.40;99.90;;;;;;5074267;28;20123;-71
2022/01/21 02:42:38;;;;;;;8.52;1.85;;;2.30;99.90;;;;;;5074696;28;20170;-71
2022/01/21 02:45:05;;;;;;;7.95;1.38;;;2.40;99.90;;;;;;5073456;28;20483;-71
2022/01/21 02:47:31;;;;;;;5.55;0.82;;;2.30;99.90;;;;;;5074287;28;20054;-71
2022/01/21 02:49:57;;;;;;;10.90;2.17;;;2.40;99.90;;;;;;5073511;28;20111;-71
2022/01/21 02:52:26;;;;;;;7.20;1.27;;;2.40;99.90;;;;;;5074292;28;20045;-71
2022/01/21 02:54:52;;;;;;;5.80;0.88;;;2.40;99.90;;;;;;5074353;28;20044;-71
2022/01/21 02:57:17;;;;;;;6.55;1.42;;;2.40;99.90;;;;;;5056185;28;20044;-71
2022/01/21 02:59:43;;;;;;;7.20;1.15;;;2.50;99.90;;;;;;5074487;28;20427;-71
2022/01/21 03:02:09;;;;;;;4.80;1.02;;;2.40;99.90;;;;;;5073524;28;20162;-71
2022/01/21 03:04:53;;;;;;;8.40;1.58;;;2.40;99.90;;;;;;5074388;28;20548;-71
2022/01/21 03:07:18;;;;;;;4.25;1.50;;;2.40;99.90;;;;;;5072476;28;20048;-71
2022/01/21 03:09:44;;;;;;;5.38;1.02;;;2.40;99.90;;;;;;5073898;28;20036;-71
2022/01/21 03:12:10;;;;;;;8.95;1.35;;;2.40;99.90;;;;;;5072784;28;20431;-71
2022/01/21 03:14:35;;;;;;;8.15;1.45;;;2.50;99.90;;;;;;5074122;28;20090;-71
2022/01/21 03:17:01;;;;;;;10.95;1.50;;;2.50;99.90;;;;;;5073487;28;20063;-71
2022/01/21 03:19:26;;;;;;;7.80;1.55;;;2.50;99.90;;;;;;5073596;28;20152;-71
2022/01/21 03:21:52;;;;;;;11.13;2.05;;;2.50;99.90;;;;;;5073954;28;20049;-71
2022/01/21 03:24:17;;;;;;;9.07;2.00;;;2.50;99.90;;;;;;5072444;28;20048;-71
2022/01/21 03:26:43;;;;;;;9.52;1.65;;;2.60;99.90;;;;;;5073231;28;20205;-71
2022/01/21 03:29:09;;;;;;;8.45;1.60;;;2.60;99.90;;;;;;5073601;28;20037;-71
2022/01/21 03:31:34;;;;;;;10.80;2.75;;;2.70;99.90;;;;;;5073571;28;20039;-71
2022/01/21 03:34:02;;;;;;;14.93;2.10;;;2.60;99.90;;;;;;5073727;28;20051;-71
2022/01/21 03:36:29;;;;;;;9.88;1.83;;;2.80;99.90;;;;;;5073445;28;20048;-71
2022/01/21 03:38:55;;;;;;;9.93;2.25;;;2.90;99.90;;;;;;5072268;28;20400;-71
2022/01/21 03:41:20;;;;;;;18.67;2.42;;;2.80;99.90;;;;;;5072361;28;20037;-71
2022/01/21 03:43:47;;;;;;;11.48;1.90;;;2.90;99.90;;;;;;5073283;28;20040;-71
2022/01/21 03:46:13;;;;;;;9.65;2.20;;;2.90;99.90;;;;;;5073445;28;20037;-71
2022/01/21 03:48:39;;;;;;;9.38;1.95;;;2.80;99.90;;;;;;5072119;28;20044;-71
2022/01/21 03:51:05;;;;;;;11.48;1.70;;;2.90;99.90;;;;;;5072046;28;20032;-71
2022/01/21 03:53:30;;;;;;;11.23;1.95;;;2.80;99.90;;;;;;5073164;28;20082;-71
2022/01/21 03:55:56;;;;;;;9.10;2.00;;;2.70;99.90;;;;;;5055360;28;20047;-71
2022/01/21 03:58:22;;;;;;;8.02;1.83;;;2.80;99.90;;;;;;5073321;28;20174;-71
2022/01/21 04:00:50;;;;;;;12.60;1.80;;;2.70;99.90;;;;;;5072956;28;20502;-71
2022/01/21 04:03:17;;;;;;;9.20;1.60;;;2.80;99.90;;;;;;5073117;28;20501;-71
2022/01/21 04:05:42;;;;;;;11.55;1.85;;;2.80;99.90;;;;;;5073007;28;20477;-71
2022/01/21 04:08:10;;;;;;;9.43;1.92;;;2.70;99.90;;;;;;5073043;28;20044;-71
2022/01/21 04:10:38;;;;;;;10.30;1.58;;;2.80;99.90;;;;;;5073607;28;20046;-71
2022/01/21 04:13:07;;;;;;;11.63;2.17;;;2.80;99.90;;;;;;5073451;28;20089;-71
2022/01/21 04:15:33;;;;;;;8.40;2.20;;;2.80;99.90;;;;;;5073088;28;20063;-72
2022/01/21 04:17:58;;;;;;;13.95;2.08;;;2.70;99.90;;;;;;5073258;28;20033;-71
2022/01/21 04:20:24;;;;;;;10.57;1.80;;;2.70;99.90;;;;;;5073326;28;20469;-71
2022/01/21 04:22:50;;;;;;;9.27;2.10;;;2.70;99.90;;;;;;5073142;28;20040;-71
2022/01/21 04:25:15;;;;;;;6.63;1.42;;;2.70;99.90;;;;;;5073096;28;20399;-71
2022/01/21 04:27:41;;;;;;;12.88;1.42;;;2.70;99.90;;;;;;5072882;28;20044;-71
2022/01/21 04:30:08;;;;;;;8.77;1.83;;;2.70;99.90;;;;;;5072862;28;20360;-71
2022/01/21 04:32:34;;;;;;;7.57;1.65;;;2.60;99.90;;;;;;5073112;28;20093;-72
2022/01/21 04:34:59;;;;;;;6.85;1.50;;;2.60;99.90;;;;;;5071850;28;20477;-71
2022/01/21 04:37:26;;;;;;;12.15;2.00;;;2.60;99.90;;;;;;5072495;28;20416;-71
2022/01/21 04:39:59;;;;;;;6.70;1.40;;;2.60;99.90;;;;;;5072692;28;20047;-71
2022/01/21 04:47:53;;;;;;;5.93;1.20;;;2.50;99.90;;;;;;5072545;28;20044;-72
2022/01/21 04:50:19;;;;;;;8.13;1.75;;;2.40;99.90;;;;;;5071533;28;20093;-72
2022/01/21 04:52:45;;;;;;;7.95;1.20;;;2.40;99.90;;;;;;5072630;28;20040;-71
2022/01/21 04:55:11;;;;;;;8.25;1.48;;;2.30;99.90;;;;;;5073348;28;20048;-71
2022/01/21 04:57:37;;;;;;;7.80;1.63;;;2.30;99.90;;;;;;5071043;28;20049;-72
2022/01/21 05:00:06;;;;;;;9.18;1.40;;;2.20;99.90;;;;;;5073029;28;20054;-71
2022/01/21 05:02:33;;;;;;;6.05;1.73;;;2.20;99.90;;;;;;5072973;28;20043;-71
2022/01/21 05:04:59;;;;;;;9.50;3.42;;;2.20;99.90;;;;;;5071283;28;20043;-71
2022/01/21 05:07:26;;;;;;;6.65;3.00;;;2.10;99.90;;;;;;5070885;28;20066;-71
2022/01/21 05:09:52;;;;;;;5.70;2.10;;;2.10;99.90;;;;;;5072653;28;20044;-72
2022/01/21 05:12:20;;;;;;;15.15;2.42;;;2.10;99.90;;;;;;5073976;28;20045;-71
2022/01/21 05:17:14;;;;;;;7.35;1.60;;;2.10;99.90;;;;;;5074500;28;20583;-72
2022/01/21 05:19:39;;;;;;;12.93;1.80;;;2.10;99.90;;;;;;5076420;28;20503;-71
2022/01/21 05:22:05;;;;;;;14.45;2.00;;;2.20;99.90;;;;;;5076250;28;20040;-72
2022/01/21 05:24:31;;;;;;;8.77;2.53;;;2.20;99.90;;;;;;5074708;28;20033;-72
2022/01/21 05:27:01;;;;;;;10.68;1.73;;;2.20;99.90;;;;;;5074495;28;20479;-72
2022/01/21 05:29:28;;;;;;;9.20;2.05;;;2.30;99.90;;;;;;5074670;28;20496;-72
2022/01/21 05:31:54;;;;;;;12.63;2.47;;;2.30;99.90;;;;;;5074880;28;20404;-72
2022/01/21 05:34:20;;;;;;;13.07;2.15;;;2.40;99.90;;;;;;5074683;28;20032;-72
2022/01/21 05:36:46;;;;;;;9.00;2.47;;;2.40;99.90;;;;;;5075519;28;20127;-72
2022/01/21 05:39:13;;;;;;;12.38;2.05;;;2.40;99.90;;;;;;5074234;28;20586;-72
2022/01/21 05:41:39;;;;;;;13.63;2.65;;;2.40;99.90;;;;;;5075613;28;20119;-72
2022/01/21 05:44:12;;;;;;;10.23;2.38;;;2.40;99.90;;;;;;5074229;28;20044;-72
2022/01/21 05:49:06;;;;;;;12.15;1.92;;;2.40;99.90;;;;;;5075289;28;20047;-71
2022/01/21 05:51:31;;;;;;;9.50;2.63;;;2.40;99.90;;;;;;5075821;28;20373;-71
2022/01/21 05:53:57;;;;;;;13.13;2.25;;;2.40;99.90;;;;;;5074304;28;20040;-71
2022/01/21 05:56:24;;;;;;;13.55;1.90;;;2.50;99.90;;;;;;5074955;28;20040;-72
2022/01/21 05:58:51;;;;;;;9.98;2.03;;;2.50;99.90;;;;;;5075364;28;20058;-71
2022/01/21 06:01:17;;;;;;;11.68;2.78;;;2.40;99.90;;;;;;5074361;28;20535;-72
2022/01/21 06:03:42;;;;;;;10.90;1.92;;;2.50;99.90;;;;;;5075076;28;20071;-71
2022/01/21 06:06:09;;;;;;;16.70;2.50;;;2.50;99.90;;;;;;5074731;28;20033;-72
2022/01/21 06:08:37;;;;;;;12.60;2.25;;;2.50;99.90;;;;;;5074943;28;20393;-72
2022/01/21 06:11:03;;;;;;;5.75;1.80;;;2.50;99.90;;;;;;5075029;28;20035;-72
2022/01/21 06:13:29;;;;;;;18.52;2.83;;;2.50;99.90;;;;;;5075467;28;20039;-72
2022/01/21 06:15:56;;;;;;;8.57;1.63;;;2.50;99.90;;;;;;5074688;28;20161;-72
2022/01/21 06:18:22;;;;;;;10.23;1.55;;;2.50;99.90;;;;;;5073523;28;20048;-72
2022/01/21 06:20:47;;;;;;;11.52;1.73;;;2.50;99.90;;;;;;5073720;28;20040;-72
2022/01/21 06:23:13;;;;;;;10.10;2.72;;;2.50;99.90;;;;;;5074441;28;20047;-72
2022/01/21 06:25:39;;;;;;;11.38;1.92;;;2.50;99.90;;;;;;5074740;28;20101;-72
2022/01/21 06:28:05;;;;;;;9.35;2.00;;;2.40;99.90;;;;;;5074699;28;20406;-71
2022/01/21 06:30:30;;;;;;;8.52;2.00;;;2.40;99.90;;;;;;5075018;28;20044;-72
2022/01/21 06:32:56;;;;;;;11.73;1.95;;;2.50;99.90;;;;;;5073670;28;20050;-72
2022/01/21 06:35:21;;;;;;;13.55;2.40;;;2.60;99.90;;;;;;5074624;28;20048;-71
2022/01/21 06:37:47;;;;;;;7.25;2.30;;;2.70;99.90;;;;;;5073119;28;20087;-71
2022/01/21 06:40:14;;;;;;;8.95;2.00;;;2.70;99.90;;;;;;5073445;28;20044;-71
2022/01/21 06:42:39;;;;;;;10.98;2.20;;;2.70;99.90;;;;;;5074416;28;20051;-71
2022/01/21 06:45:05;;;;;;;12.63;2.17;;;2.70;99.90;;;;;;5074285;28;20040;-71
2022/01/21 06:47:31;;;;;;;12.40;1.98;;;2.70;99.90;;;;;;5072584;28;20405;-71
2022/01/21 06:49:59;;;;;;;14.60;2.17;;;2.60;99.90;;;;;;5074104;28;20036;-72
2022/01/21 06:52:29;;;;;;;10.43;2.13;;;2.70;99.90;;;;;;5074271;28;20033;-71
2022/01/21 06:54:55;;;;;;;6.50;1.42;;;2.60;99.90;;;;;;5074082;28;20040;-71
2022/01/21 06:57:20;;;;;;;13.35;2.88;;;2.70;99.90;;;;;;5073721;28;20044;-71
2022/01/21 06:59:47;;;;;;;8.23;1.70;;;2.80;99.90;;;;;;5073990;28;20045;-71
2022/01/21 07:02:13;;;;;;;11.80;3.63;;;2.80;99.90;;;;;;5074388;28;20064;-72
2022/01/21 07:04:38;;;;;;;9.95;2.20;;;2.80;99.90;;;;;;5072707;28;20079;-71
2022/01/21 07:07:04;;;;;;;9.55;1.77;;;2.80;99.90;;;;;;5073549;28;20047;-72
2022/01/21 07:09:30;;;;;;;9.45;2.10;;;2.80;99.90;;;;;;5073978;28;20032;-72
2022/01/21 07:11:56;;;;;;;13.25;2.13;;;2.80;99.90;;;;;;5073310;28;20154;-72
2022/01/21 07:14:22;;;;;;;8.80;2.00;;;2.70;99.90;;;;;;5073763;28;20028;-71
2022/01/21 07:16:48;;;;;;;17.02;3.25;;;2.70;99.90;;;;;;5072164;28;20056;-72
2022/01/21 07:19:15;;;;;;;8.20;1.67;;;2.70;99.90;;;;;;5083377;28;20044;-72
2022/01/21 07:21:41;;;;;;;10.20;2.08;;;2.70;99.90;;;;;;5094382;28;20357;-72
2022/01/21 07:24:07;;;;;;;15.23;2.20;;;2.70;99.90;;;;;;5093833;28;20032;-72
2022/01/21 07:26:33;;;;;;;11.30;3.17;;;2.70;99.90;;;;;;5093586;28;20036;-71
2022/01/21 07:28:59;;;;;;;9.23;1.42;;;2.70;99.90;;;;;;5093663;28;20399;-71
2022/01/21 07:31:26;;;;;;;8.57;1.48;;;2.70;99.90;;;;;;5093905;28;20040;-71
2022/01/21 07:33:52;;;;;;;10.38;2.10;;;2.70;99.90;;;;;;5093898;28;20036;-70
2022/01/21 07:36:17;;;;;;;11.75;1.85;;;2.70;99.90;;;;;;5092938;28;20048;-71
2022/01/21 07:38:43;;;;;;;14.38;2.80;;;2.70;99.90;;;;;;5094014;28;20039;-71
2022/01/21 07:41:09;;;;;;;11.00;2.00;;;2.70;99.90;;;;;;5092708;28;20169;-71
2022/01/21 07:43:35;;;;;;;8.80;1.58;;;2.70;99.90;;;;;;5093587;28;20035;-71
2022/01/21 07:46:01;;;;;;;12.40;2.72;;;2.60;99.90;;;;;;5093140;28;20473;-71
2022/01/21 07:48:26;;;;;;;9.75;2.03;;;2.60;99.90;;;;;;5092423;28;20040;-71
2022/01/21 07:50:52;;;;;;;13.00;3.35;;;2.50;99.90;;;;;;5093807;28;20365;-71
2022/01/21 07:53:18;;;;;;;13.07;2.30;;;2.60;99.90;;;;;;5092176;28;20048;-71
2022/01/21 07:55:44;;;;;;;20.52;3.17;;;2.60;99.90;;;;;;5093123;28;20035;-71
2022/01/21 07:58:11;;;;;;;10.98;2.63;;;2.50;99.90;;;;;;5092352;28;20032;-71
2022/01/21 08:00:37;;;;;;;13.35;2.63;;;2.50;99.90;;;;;;5092394;28;20046;-71
2022/01/21 08:03:04;;;;;;;8.20;1.90;;;2.50;99.90;;;;;;5093946;28;20043;-71
2022/01/21 08:05:33;;;;;;;9.50;2.20;;;2.50;99.90;;;;;;5093487;28;20043;-71
2022/01/21 08:07:58;;;;;;;11.98;2.03;;;2.60;99.90;;;;;;5093618;28;20040;-71
2022/01/21 08:10:24;;;;;;;12.60;2.88;;;2.50;99.90;;;;;;5093642;28;20044;-71
2022/01/21 08:12:49;;;;;;;8.95;2.28;;;2.60;99.90;;;;;;5092172;28;20036;-71
2022/01/21 08:15:15;;;;;;;11.40;1.70;;;2.50;99.90;;;;;;5092151;28;20079;-71
2022/01/21 08:17:41;;;;;;;14.57;2.63;;;2.60;99.90;;;;;;5093047;28;20040;-71
2022/01/21 08:20:07;;;;;;;9.85;1.92;;;2.60;99.90;;;;;;5093300;28;20050;-71
2022/01/21 08:22:33;;;;;;;10.88;2.60;;;2.60;99.90;;;;;;5093723;28;20039;-71
2022/01/21 08:24:58;;;;;;;15.75;2.58;;;2.60;99.90;;;;;;5093682;28;20101;-71
2022/01/21 08:27:24;;;;;;;13.65;2.60;;;2.60;99.90;;;;;;5091410;28;20473;-71
2022/01/21 08:29:50;;;;;;;17.20;3.28;;;2.70;99.90;;;;;;5093136;28;20040;-71
2022/01/21 08:32:16;;;;;;;15.23;2.75;;;2.80;99.90;;;;;;5092965;28;20083;-71
2022/01/21 08:34:41;;;;;;;17.65;2.63;;;2.80;99.90;;;;;;5093573;28;20079;-71
2022/01/21 08:37:07;;;;;;;12.77;2.85;;;2.90;99.90;;;;;;5091563;28;20541;-71
2022/01/21 08:39:33;;;;;;;20.95;2.47;;;3.00;99.90;;;;;;5093266;28;20036;-71
2022/01/21 08:41:59;;;;;;;17.30;2.95;;;3.00;99.90;;;;;;5093006;28;20101;-71
2022/01/21 08:44:25;;;;;;;16.92;3.63;;;3.10;99.90;;;;;;5093344;28;20036;-70
2022/01/21 08:46:50;;;;;;;15.95;4.43;;;3.10;99.90;;;;;;5095031;28;20469;-71
2022/01/21 08:49:19;;;;;;;9.30;2.63;;;3.10;99.90;;;;;;5097338;28;20036;-71
2022/01/21 08:51:51;;;;;;;6.45;2.53;;;3.10;99.90;;;;;;5096811;28;20044;-71
2022/01/21 08:54:17;;;;;;;14.68;2.88;;;3.10;99.90;;;;;;5095755;28;20046;-70
2022/01/21 08:56:45;;;;;;;16.35;3.25;;;3.20;99.90;;;;;;5089118;28;20492;-71
2022/01/21 08:59:11;;;;;;;15.23;3.28;;;3.10;99.90;;;;;;5084172;28;20040;-71
2022/01/21 09:01:37;;;;;;;12.50;2.85;;;3.10;99.90;;;;;;5084517;28;20483;-71
2022/01/21 09:04:02;;;;;;;16.75;2.33;;;3.20;99.90;;;;;;5069369;28;20048;-71
2022/01/21 09:06:29;;;;;;;14.00;2.72;;;3.20;99.90;;;;;;5085482;28;20042;-71
2022/01/21 09:08:59;;;;;;;21.63;3.50;;;3.20;99.90;;;;;;5084587;28;20429;-71
2022/01/21 09:11:24;;;;;;;10.07;2.42;;;3.30;99.90;;;;;;5084627;28;20381;-71
2022/01/21 09:13:51;;;;;;;13.02;2.92;;;3.30;99.90;;;;;;5082560;28;20047;-71
2022/01/21 09:16:17;;;;;;;22.92;2.90;;;3.30;99.90;;;;;;5075762;28;20032;-71
2022/01/21 09:18:58;;;;;;;13.20;2.55;;;3.30;99.90;;;;;;5076759;28;20097;-71
2022/01/21 09:21:26;;;;;;;19.17;3.53;;;3.40;99.90;;;;;;5074978;28;20052;-71
2022/01/21 09:23:54;;;;;;;9.23;2.60;;;3.30;99.90;;;;;;5075866;28;20040;-71
2022/01/21 09:26:25;;;;;;;13.25;2.72;;;3.40;99.90;;;;;;5076164;28;20119;-71
2022/01/21 09:28:51;;;;;;;13.23;3.35;;;3.50;99.90;;;;;;5074742;28;20072;-71
2022/01/21 09:31:18;;;;;;;14.20;2.67;;;3.50;99.90;;;;;;5074424;28;20048;-71
2022/01/21 09:33:46;;;;;;;18.23;3.72;;;3.50;99.90;;;;;;5077144;28;20048;-71
2022/01/21 09:36:12;;;;;;;14.98;4.22;;;3.50;99.90;;;;;;5093124;28;20044;-71
2022/01/21 09:38:39;;;;;;;22.52;3.80;;;3.70;99.90;;;;;;5095945;28;20089;-71
2022/01/21 09:41:07;;;;;;;12.32;2.30;;;3.70;99.90;;;;;;5096124;28;20104;-71
2022/01/21 09:43:34;;;;;;;14.00;2.80;;;3.70;99.90;;;;;;5096112;28;20043;-70
2022/01/21 09:46:05;;;;;;;23.38;3.15;;;3.80;99.90;;;;;;5094161;28;20048;-71
2022/01/21 09:48:35;;;;;;;19.30;4.47;;;3.80;99.90;;;;;;5095591;28;20109;-71
2022/01/21 09:51:02;;;;;;;17.35;3.10;;;3.90;99.90;;;;;;5096393;28;20400;-71
2022/01/21 09:53:34;;;;;;;20.10;3.17;;;3.90;99.90;;;;;;5096001;28;20047;-71
2022/01/21 09:56:03;;;;;;;27.35;3.65;;;4.00;99.90;;;;;;5093989;28;20044;-71
2022/01/21 09:58:30;;;;;;;18.75;3.47;;;4.10;99.90;;;;;;5094818;28;20043;-71
2022/01/21 10:00:58;;;;;;;20.80;3.55;;;4.10;99.90;;;;;;5095558;28;20058;-72
2022/01/21 10:03:25;;;;;;;32.05;5.22;;;4.10;99.90;;;;;;5095463;28;20032;-72
2022/01/21 10:05:52;;;;;;;21.95;3.20;;;4.10;99.90;;;;;;5095044;28;20072;-72
2022/01/21 10:08:21;;;;;;;19.90;3.40;;;4.20;99.90;;;;;;5095735;28;20040;-71
2022/01/21 10:10:48;;;;;;;24.25;3.70;;;4.30;99.90;;;;;;5095462;28;20036;-72
2022/01/21 10:13:19;;;;;;;21.25;4.80;;;4.30;99.90;;;;;;5094281;28;20083;-72
2022/01/21 10:15:46;;;;;;;14.93;4.40;;;4.30;99.90;;;;;;5094772;28;20391;-72
2022/01/21 10:18:13;;;;;;;21.45;3.80;;;4.30;99.90;;;;;;5080618;28;20443;-72
2022/01/21 10:20:58;;;;;;;21.92;4.10;;;4.30;99.90;;;;;;5073963;28;20044;-72
2022/01/21 10:23:24;;;;;;;18.48;4.30;;;4.30;99.90;;;;;;5074828;28;20123;-72
2022/01/21 10:25:59;;;;;;;17.85;4.25;;;4.40;99.90;;;;;;5074231;28;20392;-72
2022/01/21 10:28:24;;;;;;;26.77;4.80;;;4.50;99.90;;;;;;5074738;28;20461;-72
2022/01/21 10:31:04;;;;;;;19.50;4.15;;;4.50;99.90;;;;;;5074690;28;20119;-72
2022/01/21 10:33:30;;;;;;;20.13;3.83;;;4.60;99.90;;;;;;5057006;28;20055;-72
2022/01/21 10:36:10;;;;;;;28.50;4.45;;;4.70;99.90;;;;;;5074185;28;20387;-72
2022/01/21 10:38:45;;;;;;;21.45;3.83;;;4.60;99.90;;;;;;5074252;28;20047;-72
2022/01/21 10:41:16;;;;;;;20.65;4.88;;;4.80;99.90;;;;;;5074423;28;20086;-72
2022/01/21 10:43:43;;;;;;;17.60;3.92;;;4.80;99.90;;;;;;5073318;28;20444;-72
2022/01/21 10:46:15;;;;;;;16.58;3.25;;;4.90;99.90;;;;;;5056156;28;20036;-71
2022/01/21 10:49:02;;;;;;;22.27;4.90;;;5.00;99.90;;;;;;5074526;28;20045;-72
2022/01/21 10:51:31;;;;;;;20.17;3.97;;;5.00;99.90;;;;;;5074550;28;20041;-72
2022/01/21 10:54:10;;;;;;;21.42;5.72;;;5.00;99.90;;;;;;5074138;28;20418;-72
2022/01/21 10:56:35;;;;;;;15.70;3.58;;;5.10;99.90;;;;;;5073905;28;20047;-72
2022/01/21 10:59:01;;;;;;;19.85;3.53;;;5.00;99.90;;;;;;5074270;28;20119;-72
2022/01/21 11:01:29;;;;;;;12.93;3.63;;;5.10;99.90;;;;;;5073991;28;20037;-72
2022/01/21 11:04:12;;;;;;;17.45;4.10;;;5.20;99.90;;;;;;5074019;28;20044;-72
2022/01/21 11:06:53;;;;;;;21.35;4.18;;;5.20;99.90;;;;;;5072846;28;20083;-72
2022/01/21 11:09:28;;;;;;;17.85;3.45;;;5.20;99.90;;;;;;5072721;28;20060;-69
2022/01/21 11:12:09;;;;;;;12.00;2.90;;;5.40;99.90;;;;;;5072527;28;20154;-70
2022/01/21 11:14:36;;;;;;;15.80;4.20;;;5.60;99.90;;;;;;5071228;28;20504;-70
2022/01/21 11:17:14;;;;;;;20.83;4.93;;;5.70;99.90;;;;;;5073497;28;20051;-70
2022/01/21 11:19:40;;;;;;;16.00;3.42;;;5.90;99.90;;;;;;5073066;28;20448;-69
2022/01/21 11:22:07;;;;;;;16.95;2.90;;;5.90;99.90;;;;;;5072293;28;20170;-71
2022/01/21 11:24:33;;;;;;;16.33;3.13;;;5.90;99.90;;;;;;5072423;28;20055;-70
2022/01/21 11:27:05;;;;;;;12.77;4.55;;;6.10;99.90;;;;;;5071583;28;20621;-70
2022/01/21 11:29:32;;;;;;;20.50;3.90;;;6.10;99.90;;;;;;5070962;28;20439;-70
2022/01/21 11:31:57;;;;;;;19.88;3.15;;;6.10;99.90;;;;;;5073554;28;20039;-71
2022/01/21 11:34:23;;;;;;;22.88;4.15;;;6.10;99.90;;;;;;5072427;28;20040;-70
2022/01/21 11:36:49;;;;;;;13.77;3.45;;;6.20;99.90;;;;;;5072265;28;20083;-70
2022/01/21 11:39:20;;;;;;;16.90;3.85;;;6.20;99.90;;;;;;5073697;28;20055;-70
2022/01/21 11:41:49;;;;;;;14.52;3.38;;;6.30;99.90;;;;;;5084006;28;20488;-70
2022/01/21 11:44:19;;;;;;;20.50;3.78;;;6.30;99.90;;;;;;5084056;28;20032;-70
2022/01/21 11:49:58;;;;;;;12.93;2.72;;;6.60;99.90;;;;;;5034702;28;20041;-70
2022/01/21 11:52:24;;;;;;;12.07;2.80;;;6.70;99.90;;;;;;5035329;28;20056;-70
2022/01/21 11:54:50;;;;;;;15.45;3.83;;;6.70;99.90;;;;;;5052028;28;20029;-70
2022/01/21 11:57:25;;;;;;;9.77;2.72;;;6.80;99.90;;;;;;5052729;28;20041;-70
2022/01/21 11:59:58;;;;;;;20.92;3.00;;;6.80;99.90;;;;;;5051843;28;20044;-71
2022/01/21 12:02:30;;;;;;;14.05;2.55;;;6.80;99.90;;;;;;5035559;28;20048;-70
2022/01/21 12:05:01;;;;;;;11.70;2.50;;;6.80;99.90;;;;;;5053434;28;20482;-70
2022/01/21 12:07:36;;;;;;;12.32;2.58;;;6.80;99.90;;;;;;5052973;28;20523;-70
2022/01/21 12:10:15;;;;;;;11.30;2.15;;;6.80;99.90;;;;;;5053243;28;20052;-70
2022/01/21 12:12:56;;;;;;;11.43;2.20;;;6.70;99.90;;;;;;5051816;28;20055;-70
2022/01/21 12:15:27;;;;;;;19.20;2.92;;;6.80;99.90;;;;;;5051820;28;20056;-70
2022/01/21 12:20:55;;;;;;;15.27;4.32;;;6.80;99.90;;;;;;5052491;28;20056;-70
2022/01/21 12:23:25;;;;;;;13.35;2.53;;;6.80;99.90;;;;;;5056942;28;20037;-70
2022/01/21 12:26:09;;;;;;;16.27;2.47;;;6.80;99.90;;;;;;5057143;28;20033;-70
2022/01/21 12:28:58;;;;;;;12.18;3.35;;;6.80;99.90;;;;;;5055746;28;20401;-70
2022/01/21 12:32:40;;;;;;;14.02;2.33;;;6.80;99.90;;;;;;5057753;28;20091;-70
2022/01/21 12:35:02;;;;;;;18.10;4.50;;;6.90;99.90;;;;;;5050815;28;20049;-69
2022/01/21 12:37:49;;;;;;;;;;;6.90;99.90;;;;;;5055642;28;20138;-70
2022/01/21 12:40:35;;;;;;;14.43;3.20;;;6.90;99.90;;;;;;5056455;28;20381;-70
2022/01/21 12:43:39;;;;;;;10.38;1.98;;;6.90;99.90;;;;;;5056798;28;20461;-69
2022/01/21 12:46:11;;;;;;;8.43;1.90;;;7.00;99.90;;;;;;5055303;28;20477;-71
2022/01/21 12:48:38;;;;;;;12.45;2.33;;;7.00;99.90;;;;;;5056968;28;20041;-70
2022/01/21 12:51:18;;;;;;;19.08;2.40;;;7.10;99.90;;;;;;5055355;28;20051;-68
2022/01/21 12:56:52;;;;;;;9.65;3.08;;;7.00;99.90;;;;;;5055106;28;20478;-70
2022/01/21 12:59:23;;;;;;;7.82;2.70;;;7.20;99.90;;;;;;5056643;28;20148;-69
2022/01/21 13:01:50;;;;;;;12.98;3.05;;;7.10;99.90;;;;;;5056246;28;20037;-70
2022/01/21 13:04:20;;;;;;;14.27;2.50;;;7.00;99.90;;;;;;5054958;28;20044;-69
2022/01/21 13:07:04;;;;;;;14.85;3.08;;;7.00;99.90;;;;;;5054588;28;20056;-69
2022/01/21 13:10:01;;;;;;;17.88;3.90;;;7.10;99.90;;;;;;5056489;28;20048;-69
2022/01/21 13:15:52;;;;;;;13.55;3.05;;;7.10;99.90;;;;;;5055569;28;20049;-70
2022/01/21 13:18:18;;;;;;;18.17;3.63;;;7.10;99.90;;;;;;5055118;28;20055;-69
2022/01/21 13:20:49;;;;;;;14.73;2.80;;;7.10;99.90;;;;;;5056315;28;20045;-69
2022/01/21 13:23:55;;;;;;;12.90;2.33;;;7.10;99.90;;;;;;5055864;28;20115;-69
2022/01/21 13:26:24;;;;;;;10.40;2.55;;;7.10;99.90;;;;;;5074623;28;20040;-70
2022/01/21 13:29:05;;;;;;;14.00;2.28;;;7.20;99.90;;;;;;5082377;28;20043;-70
2022/01/21 13:31:34;;;;;;;18.58;2.42;;;7.20;99.90;;;;;;5060668;28;20097;-69
2022/01/21 13:34:20;;;;;;;15.23;2.63;;;7.20;99.90;;;;;;5074983;28;20036;-69
2022/01/21 13:36:48;;;;;;;15.55;2.55;;;7.20;99.90;;;;;;5075579;28;20044;-70
2022/01/21 13:39:21;;;;;;;19.70;2.63;;;7.20;99.90;;;;;;5075915;28;20036;-68
2022/01/21 13:42:07;;;;;;;17.95;3.25;;;7.20;99.90;;;;;;5075671;28;20489;-69
2022/01/21 13:44:49;;;;;;;14.45;3.00;;;7.20;99.90;;;;;;5075792;28;20043;-69
2022/01/21 13:47:40;;;;;;;20.75;3.75;;;7.20;99.90;;;;;;5075429;28;20039;-70
2022/01/21 13:50:17;;;;;;;15.23;2.70;;;7.20;99.90;;;;;;5074569;28;20545;-70
2022/01/21 13:52:52;;;;;;;16.23;3.00;;;7.10;99.90;;;;;;5075558;28;20476;-69
2022/01/21 13:55:41;;;;;;;13.00;3.10;;;7.00;99.90;;;;;;5075652;28;20098;-70
2022/01/21 13:58:10;;;;;;;14.13;3.08;;;7.00;99.90;;;;;;5075297;28;20097;-69
2022/01/21 14:00:46;;;;;;;17.58;3.40;;;7.00;99.90;;;;;;5074091;28;20055;-70
2022/01/21 14:03:26;;;;;;;18.25;3.35;;;7.00;99.90;;;;;;5081298;28;20059;-70